Íslenskir flugvellir

Veldu flugvelli í þeirri röð sem þeir eiga að birtast og styddu á hnappinn

Uppfært síðast 16.06.2021 - kl. 14:15

SIGMET síðustu 6 klst.

Engin SIGMET skeyti bárust síðustu 6 klst.

Egilsstaðir

METAR síðustu 3 klst

TímiSkeyti
2021-06-16 14.00METAR BIEG 161400Z 01023KT 9999 -SHRA FEW010 SCT020 BKN025 03/01 Q1005
2021-06-16 13.00METAR BIEG 161300Z 01021G31KT 9999 VCSH FEW009 SCT021 OVC060 03/01 Q1005
2021-06-16 12.00METAR BIEG 161200Z 01020KT 9999 VCSH FEW010 SCT020 OVC060 04/01 Q1005

TAF

TAFBIEG2021-06-16 14.04Z16151502017G27KT 9999 FEW010 BKN020 OVC060 TX05/1712Z TN01/1621Z TEMPO 1615/1706 4000 RASN BKN010 OVC015 BECMG 1622/1700 VRB02KT BECMG 1707/1709 9999 -SHRASN BKN015 BECMG 1710/1712 34008KT

Allur vindur er réttvísandi bæði í Metar og frá sjálfvirkum veðurstöðvum




Aðrir tengdir vefir



Þetta vefsvæði byggir á Eplica